Time;durP1;ratioP1;P1;durP2;ratioP2;P2;SDS_P1;SDS_P2;PMS_P1;PMS_P2;Temp;Humidity;BMP_temperature;BMP_pressure;BME280_temperature;BME280_humidity;BME280_pressure;Samples;Min_cycle;Max_cycle;Signal;HPM_P1;HPM_P2
2021/06/01 00:00:22;;;;;;;4.85;1.70;;;19.00;61.30;;;;;;5069606;28;20043;-86
2021/06/01 00:02:48;;;;;;;3.63;1.88;;;19.00;60.30;;;;;;5087421;28;20028;-86
2021/06/01 00:05:14;;;;;;;4.53;1.77;;;18.90;59.80;;;;;;5037873;28;20037;-86
2021/06/01 00:07:40;;;;;;;3.67;1.90;;;18.90;60.70;;;;;;5037638;28;20435;-86
2021/06/01 00:10:07;;;;;;;2.83;1.77;;;18.80;60.70;;;;;;5039279;28;20036;-86
2021/06/01 00:12:33;;;;;;;2.67;1.63;;;18.80;60.80;;;;;;5069375;28;20036;-87
2021/06/01 00:14:58;;;;;;;3.20;1.83;;;18.80;60.20;;;;;;5056129;28;20547;-87
2021/06/01 00:17:24;;;;;;;2.25;1.48;;;18.80;60.10;;;;;;5038946;28;20115;-87
2021/06/01 00:19:50;;;;;;;3.10;1.60;;;18.70;60.50;;;;;;5050558;28;20021;-86
2021/06/01 00:22:16;;;;;;;2.92;1.67;;;18.70;60.90;;;;;;5066392;28;20028;-87
2021/06/01 00:24:41;;;;;;;2.92;1.58;;;18.70;60.90;;;;;;5057459;28;20040;-87
2021/06/01 00:27:07;;;;;;;4.60;1.60;;;18.60;60.30;;;;;;5048479;28;20033;-86
2021/06/01 00:29:33;;;;;;;3.22;1.70;;;18.60;60.60;;;;;;5042216;28;20504;-86
2021/06/01 00:31:59;;;;;;;2.45;1.45;;;18.60;60.90;;;;;;5045401;28;20028;-87
2021/06/01 00:34:24;;;;;;;2.33;1.35;;;18.60;61.40;;;;;;5053220;28;20179;-87
2021/06/01 00:36:50;;;;;;;3.00;1.70;;;18.50;61.20;;;;;;5053094;28;20552;-87
2021/06/01 00:39:16;;;;;;;2.33;1.45;;;18.50;61.60;;;;;;5064172;28;20036;-86
2021/06/01 00:41:41;;;;;;;3.78;1.70;;;18.40;62.30;;;;;;5092595;28;20403;-87
2021/06/01 00:44:07;;;;;;;2.08;1.60;;;18.40;61.50;;;;;;5053913;28;20033;-86
2021/06/01 00:46:33;;;;;;;2.40;1.45;;;18.40;61.90;;;;;;5034064;28;20139;-86
2021/06/01 00:48:59;;;;;;;3.33;1.40;;;18.40;62.00;;;;;;5069004;28;20037;-87
2021/06/01 00:51:25;;;;;;;4.53;1.50;;;18.40;61.90;;;;;;5053528;28;20440;-86
2021/06/01 00:53:51;;;;;;;3.13;1.63;;;18.30;61.70;;;;;;5062191;28;20021;-87
2021/06/01 00:56:16;;;;;;;3.97;2.13;;;18.30;61.80;;;;;;5046276;28;20029;-86
2021/06/01 00:58:42;;;;;;;2.80;1.73;;;18.30;61.00;;;;;;5067676;28;20040;-87
2021/06/01 01:03:35;;;;;;;4.18;1.88;;;18.20;60.40;;;;;;5072048;28;20043;-87
2021/06/01 01:06:08;;;;;;;3.10;2.03;;;18.20;61.50;;;;;;5055900;28;20024;-86
2021/06/01 01:11:47;;;;;;;3.10;1.80;;;18.10;62.10;;;;;;5072308;28;20036;-86
2021/06/01 01:14:22;;;;;;;5.25;2.22;;;18.10;61.30;;;;;;5073246;28;20274;-85
2021/06/01 01:16:56;;;;;;;3.55;2.35;;;18.00;60.40;;;;;;5072135;28;20075;-85
2021/06/01 01:19:47;;;;;;;4.38;2.10;;;18.00;61.50;;;;;;5072879;28;20123;-84
2021/06/01 01:22:13;;;;;;;4.65;2.05;;;18.00;61.70;;;;;;5055339;28;20071;-86
2021/06/01 01:24:48;;;;;;;4.07;2.13;;;18.00;62.00;;;;;;5038634;28;20064;-85
2021/06/01 01:27:18;;;;;;;5.03;2.00;;;17.90;61.80;;;;;;5073408;28;20024;-85
2021/06/01 01:29:46;;;;;;;2.60;1.55;;;17.90;62.30;;;;;;5071039;28;20025;-86
2021/06/01 01:32:25;;;;;;;3.75;1.88;;;17.90;60.70;;;;;;5067768;28;20444;-86
2021/06/01 01:34:53;;;;;;;3.75;1.98;;;17.80;60.10;;;;;;5045540;28;20021;-86
2021/06/01 01:37:20;;;;;;;3.58;2.05;;;17.80;61.20;;;;;;5071624;28;20033;-85
2021/06/01 01:39:50;;;;;;;3.85;2.08;;;17.80;62.40;;;;;;5070829;28;20027;-85
2021/06/01 01:42:17;;;;;;;5.03;1.98;;;17.70;62.00;;;;;;5070513;28;20033;-86
2021/06/01 01:44:52;;;;;;;4.55;2.25;;;17.70;62.20;;;;;;5054556;28;20081;-86
2021/06/01 01:50:04;;;;;;;2.83;1.90;;;17.60;61.40;;;;;;5059203;28;20021;-86
2021/06/01 01:52:30;;;;;;;5.95;2.35;;;17.60;61.80;;;;;;5073042;28;20123;-86
2021/06/01 01:54:57;;;;;;;3.70;2.05;;;17.50;62.20;;;;;;5070988;28;20047;-86
2021/06/01 01:57:24;;;;;;;3.88;2.20;;;17.50;62.20;;;;;;5054661;28;20033;-86
2021/06/01 01:59:51;;;;;;;2.72;2.00;;;17.50;61.80;;;;;;5058319;28;20025;-86
2021/06/01 02:02:17;;;;;;;3.38;2.33;;;17.50;62.20;;;;;;5071568;28;20032;-86
2021/06/01 02:04:43;;;;;;;5.03;2.30;;;17.40;61.50;;;;;;5054573;28;20024;-86
2021/06/01 02:07:09;;;;;;;4.15;2.30;;;17.40;61.20;;;;;;5071282;28;20456;-86
2021/06/01 02:09:35;;;;;;;3.42;2.10;;;17.30;62.50;;;;;;5071112;28;20108;-86
2021/06/01 02:12:01;;;;;;;5.18;2.75;;;17.30;62.70;;;;;;5070907;28;20489;-86
2021/06/01 02:14:27;;;;;;;5.03;2.47;;;17.30;62.10;;;;;;5062132;28;20032;-86
2021/06/01 02:16:57;;;;;;;4.45;2.53;;;17.20;63.20;;;;;;5050925;28;20467;-85
2021/06/01 02:19:23;;;;;;;5.25;2.65;;;17.20;63.00;;;;;;5070691;28;20143;-85
2021/06/01 02:24:38;;;;;;;4.05;2.40;;;17.10;63.00;;;;;;5052151;28;20040;-86
2021/06/01 02:27:36;;;;;;;5.85;2.80;;;17.10;63.00;;;;;;5054111;28;20481;-86
2021/06/01 02:30:06;;;;;;;5.10;2.50;;;17.10;62.70;;;;;;5069779;28;20037;-86
2021/06/01 02:32:44;;;;;;;8.13;2.38;;;17.00;61.60;;;;;;5070450;28;20123;-86
2021/06/01 02:35:33;;;;;;;3.35;2.28;;;17.00;62.40;;;;;;5070913;28;20021;-86
2021/06/01 02:38:01;;;;;;;5.63;2.65;;;16.90;63.00;;;;;;5060119;28;20070;-86
2021/06/01 02:40:29;;;;;;;3.20;2.22;;;16.90;63.70;;;;;;5071394;28;20025;-87
2021/06/01 02:42:55;;;;;;;4.93;2.45;;;16.90;64.70;;;;;;5056216;28;20069;-86
2021/06/01 02:45:22;;;;;;;3.97;2.40;;;16.90;64.70;;;;;;5053796;28;20416;-86
2021/06/01 02:47:49;;;;;;;3.78;2.28;;;16.80;64.60;;;;;;5070214;28;20425;-86
2021/06/01 02:50:17;;;;;;;4.82;2.42;;;16.80;64.70;;;;;;5070693;28;20388;-86
2021/06/01 02:52:44;;;;;;;5.80;2.20;;;16.80;63.30;;;;;;5053342;28;20020;-85
2021/06/01 02:55:14;;;;;;;4.43;2.22;;;16.70;63.80;;;;;;5053796;28;20075;-86
2021/06/01 02:57:42;;;;;;;5.68;2.17;;;16.70;63.80;;;;;;5068849;28;20040;-87
2021/06/01 03:00:12;;;;;;;3.85;2.38;;;16.70;63.50;;;;;;5050357;28;20064;-86
2021/06/01 03:02:38;;;;;;;3.92;2.40;;;16.60;64.50;;;;;;5050501;28;20020;-85
2021/06/01 03:05:05;;;;;;;3.08;2.10;;;16.60;64.60;;;;;;5053358;28;20029;-86
2021/06/01 03:07:31;;;;;;;5.65;2.60;;;16.60;64.60;;;;;;5071384;28;20031;-86
2021/06/01 03:09:57;;;;;;;4.25;2.20;;;16.50;65.40;;;;;;5065823;28;20032;-85
2021/06/01 03:14:48;;;;;;;6.10;2.50;;;16.50;65.60;;;;;;5071369;28;20039;-86
2021/06/01 03:17:15;;;;;;;3.83;2.35;;;16.40;65.80;;;;;;5071615;28;20025;-85
2021/06/01 03:19:40;;;;;;;4.10;2.20;;;16.40;66.00;;;;;;5080966;28;20044;-86
2021/06/01 03:22:06;;;;;;;6.30;2.83;;;16.40;66.00;;;;;;5069780;28;20074;-86
2021/06/01 03:24:32;;;;;;;7.97;2.85;;;16.40;66.50;;;;;;5053549;28;20037;-86
2021/06/01 03:26:58;;;;;;;3.75;2.13;;;16.30;66.00;;;;;;5053101;28;20040;-85
2021/06/01 03:29:24;;;;;;;4.00;2.30;;;16.30;66.90;;;;;;5070339;28;20036;-85
2021/06/01 03:31:50;;;;;;;2.70;2.00;;;16.30;66.90;;;;;;5069790;28;20029;-86
2021/06/01 03:34:16;;;;;;;6.97;2.58;;;16.30;66.70;;;;;;5028768;28;20052;-86
2021/06/01 03:36:41;;;;;;;5.28;2.10;;;16.30;66.60;;;;;;5064347;28;20078;-86
2021/06/01 03:39:08;;;;;;;7.15;3.22;;;16.20;67.40;;;;;;5053835;28;20461;-86
2021/06/01 03:41:35;;;;;;;3.75;2.40;;;16.20;67.90;;;;;;5058522;28;20071;-86
2021/06/01 03:44:01;;;;;;;3.65;2.30;;;16.20;67.30;;;;;;5068657;28;20040;-87
2021/06/01 03:46:27;;;;;;;3.13;2.30;;;16.20;67.10;;;;;;5053642;28;20040;-86
2021/06/01 03:48:54;;;;;;;4.05;2.33;;;16.10;67.70;;;;;;5052885;28;20396;-86
2021/06/01 03:51:19;;;;;;;3.55;2.35;;;16.10;67.40;;;;;;5069804;28;20021;-85
2021/06/01 03:53:47;;;;;;;4.70;2.45;;;16.10;67.70;;;;;;5071257;28;20033;-86
2021/06/01 03:56:14;;;;;;;3.25;2.08;;;16.00;67.70;;;;;;5074905;28;20021;-86
2021/06/01 03:58:39;;;;;;;4.07;2.30;;;16.00;68.20;;;;;;5057266;28;20033;-86
2021/06/01 04:01:05;;;;;;;5.30;2.50;;;16.00;68.50;;;;;;5078202;28;20439;-86
2021/06/01 04:03:33;;;;;;;3.60;2.15;;;16.00;68.40;;;;;;5073787;28;20040;-86
2021/06/01 04:05:59;;;;;;;2.95;2.33;;;16.00;67.90;;;;;;5074673;28;20032;-85
2021/06/01 04:08:24;;;;;;;4.47;2.47;;;15.90;68.60;;;;;;5074596;28;20033;-86
2021/06/01 04:10:50;;;;;;;4.13;2.45;;;16.00;69.00;;;;;;5056582;28;20037;-85
2021/06/01 04:13:15;;;;;;;4.07;2.17;;;15.90;68.70;;;;;;5073320;28;20028;-86
2021/06/01 04:15:41;;;;;;;5.28;2.70;;;15.90;69.10;;;;;;5090163;28;20033;-86
2021/06/01 04:18:07;;;;;;;4.90;2.60;;;15.90;68.90;;;;;;5072954;28;20086;-86
2021/06/01 04:20:32;;;;;;;4.00;2.33;;;15.90;69.70;;;;;;5073347;28;20028;-86
2021/06/01 04:22:58;;;;;;;4.85;2.75;;;15.80;70.30;;;;;;5056254;28;20461;-87
2021/06/01 04:25:24;;;;;;;3.35;2.35;;;15.90;69.80;;;;;;5056390;28;20024;-85
2021/06/01 04:27:49;;;;;;;7.13;2.35;;;15.80;70.10;;;;;;5073271;28;20182;-86
2021/06/01 04:30:15;;;;;;;4.90;2.63;;;15.90;70.20;;;;;;5056760;28;20036;-87
2021/06/01 04:32:41;;;;;;;6.60;2.90;;;15.80;69.70;;;;;;5074877;28;20028;-86
2021/06/01 04:35:07;;;;;;;4.82;2.60;;;15.80;70.10;;;;;;5072639;28;20495;-85
2021/06/01 04:37:33;;;;;;;5.00;2.78;;;15.80;70.60;;;;;;5039811;28;20435;-86
2021/06/01 04:39:59;;;;;;;4.55;2.70;;;15.80;71.30;;;;;;5039452;28;20082;-86
2021/06/01 04:42:24;;;;;;;5.40;2.75;;;15.80;71.50;;;;;;5056017;28;20022;-86
2021/06/01 04:44:50;;;;;;;3.78;2.50;;;15.80;71.60;;;;;;5064710;28;20024;-86
2021/06/01 04:47:16;;;;;;;6.72;2.78;;;15.90;71.50;;;;;;5052724;28;20389;-86
2021/06/01 04:49:42;;;;;;;4.70;2.70;;;15.80;71.50;;;;;;5052533;28;20029;-86
2021/06/01 04:52:07;;;;;;;4.05;2.50;;;15.80;71.90;;;;;;5064044;28;20033;-86
2021/06/01 04:54:33;;;;;;;5.00;2.53;;;15.80;72.30;;;;;;5073692;28;20032;-86
2021/06/01 04:56:59;;;;;;;4.60;2.75;;;15.80;72.30;;;;;;5073802;28;20028;-86
2021/06/01 04:59:25;;;;;;;5.35;2.75;;;15.80;72.70;;;;;;5072537;28;20025;-86
2021/06/01 05:01:50;;;;;;;5.47;2.60;;;15.80;72.30;;;;;;5069217;28;20057;-86
2021/06/01 05:04:16;;;;;;;5.28;2.85;;;15.80;71.90;;;;;;5035265;28;20186;-85
2021/06/01 05:06:42;;;;;;;6.15;2.72;;;15.80;72.20;;;;;;5081422;28;20020;-86
2021/06/01 05:09:07;;;;;;;4.82;2.95;;;15.80;72.40;;;;;;5038961;28;20108;-86
2021/06/01 05:11:33;;;;;;;4.68;3.00;;;15.90;72.20;;;;;;5089933;28;20048;-86
2021/06/01 05:13:59;;;;;;;5.60;2.60;;;15.90;72.60;;;;;;5066526;28;20035;-86
2021/06/01 05:16:25;;;;;;;5.25;2.85;;;15.90;71.50;;;;;;5082279;28;20033;-86
2021/06/01 05:18:52;;;;;;;5.82;2.58;;;15.90;73.30;;;;;;5053163;28;20485;-86
2021/06/01 05:21:19;;;;;;;6.25;3.08;;;15.90;73.00;;;;;;5058095;28;20496;-87
2021/06/01 05:23:44;;;;;;;4.10;2.45;;;16.00;72.50;;;;;;5064454;28;20503;-85
2021/06/01 05:26:10;;;;;;;5.68;2.92;;;16.00;72.70;;;;;;5054745;28;20040;-86
2021/06/01 05:28:37;;;;;;;5.65;3.00;;;16.00;73.60;;;;;;5037455;28;20025;-87
2021/06/01 05:31:23;;;;;;;4.72;2.67;;;16.00;74.20;;;;;;5055899;28;20460;-87
2021/06/01 05:33:57;;;;;;;5.47;2.75;;;16.10;73.70;;;;;;5072577;28;20055;-87
2021/06/01 05:36:24;;;;;;;3.63;2.42;;;16.00;73.80;;;;;;5063204;28;20036;-87
2021/06/01 05:38:50;;;;;;;5.78;2.67;;;16.10;73.80;;;;;;5050427;28;20017;-86
2021/06/01 05:41:16;;;;;;;4.30;2.72;;;16.10;73.50;;;;;;5047904;28;20025;-86
2021/06/01 05:43:42;;;;;;;4.70;2.90;;;16.10;72.40;;;;;;5062753;28;20047;-87
2021/06/01 05:46:09;;;;;;;5.50;2.45;;;16.10;71.90;;;;;;5037475;28;20021;-86
2021/06/01 05:48:35;;;;;;;5.55;3.28;;;16.20;72.00;;;;;;5065480;28;20159;-86
2021/06/01 05:51:01;;;;;;;5.38;3.00;;;16.20;71.70;;;;;;5048972;28;20119;-86
2021/06/01 05:53:27;;;;;;;4.93;2.50;;;16.20;72.10;;;;;;5068044;28;20029;-87
2021/06/01 05:55:53;;;;;;;4.35;2.75;;;16.30;72.30;;;;;;5071794;28;20029;-86
2021/06/01 05:58:20;;;;;;;6.63;2.85;;;16.30;71.80;;;;;;5048638;28;20492;-86
2021/06/01 06:00:46;;;;;;;4.00;2.38;;;16.40;72.30;;;;;;5070306;28;20032;-86
2021/06/01 06:03:11;;;;;;;5.60;2.40;;;16.40;71.00;;;;;;5070558;28;20439;-85
2021/06/01 06:05:37;;;;;;;4.40;2.72;;;16.40;70.70;;;;;;5031234;28;20119;-86
2021/06/01 06:08:11;;;;;;;3.55;2.50;;;16.50;71.60;;;;;;5050475;28;20016;-87
2021/06/01 06:10:37;;;;;;;5.22;2.70;;;16.50;70.90;;;;;;5063803;28;20032;-85
2021/06/01 06:13:04;;;;;;;4.85;2.85;;;16.50;70.80;;;;;;5054281;28;20021;-86
2021/06/01 06:15:31;;;;;;;5.70;2.67;;;16.60;70.90;;;;;;5067916;28;20420;-86
2021/06/01 06:18:03;;;;;;;4.03;2.58;;;16.60;70.30;;;;;;5054179;28;20045;-87
2021/06/01 06:20:29;;;;;;;3.95;2.40;;;16.70;71.00;;;;;;5071899;28;20469;-86
2021/06/01 06:22:56;;;;;;;4.72;2.72;;;16.80;71.80;;;;;;5054241;28;20463;-86
2021/06/01 06:25:21;;;;;;;3.97;2.33;;;16.80;71.40;;;;;;5029934;28;20032;-85
2021/06/01 06:27:47;;;;;;;5.80;2.90;;;16.80;71.60;;;;;;5070578;28;20028;-86
2021/06/01 06:30:13;;;;;;;4.72;2.50;;;16.90;71.10;;;;;;5040716;28;20464;-86
2021/06/01 06:32:39;;;;;;;4.00;2.42;;;17.00;70.80;;;;;;5070010;28;20442;-83
2021/06/01 06:35:06;;;;;;;5.95;2.92;;;17.00;70.90;;;;;;5069673;28;20048;-83
2021/06/01 06:37:33;;;;;;;5.35;2.70;;;17.10;70.70;;;;;;5056221;28;20086;-83
2021/06/01 06:39:58;;;;;;;6.25;2.60;;;17.20;70.30;;;;;;5082447;28;20099;-84
2021/06/01 06:42:24;;;;;;;4.95;2.80;;;17.30;70.10;;;;;;5038819;28;20122;-84
2021/06/01 06:44:51;;;;;;;4.53;2.80;;;17.30;69.40;;;;;;5057512;28;20028;-90
2021/06/01 06:49:43;;;;;;;4.82;2.83;;;17.40;69.60;;;;;;5056961;28;20028;-90
2021/06/01 06:52:11;;;;;;;6.15;2.95;;;17.50;69.90;;;;;;5042936;28;20040;-91
2021/06/01 06:54:37;;;;;;;5.05;3.00;;;17.60;69.40;;;;;;5037644;28;20028;-91
2021/06/01 06:57:04;;;;;;;5.07;3.20;;;17.70;69.30;;;;;;5053473;28;20052;-93
2021/06/01 06:59:29;;;;;;;7.35;2.90;;;17.80;69.60;;;;;;5035595;28;20032;-92
2021/06/01 07:01:55;;;;;;;5.80;3.40;;;17.80;69.80;;;;;;5054391;28;20029;-92
2021/06/01 07:04:21;;;;;;;5.00;3.00;;;17.90;69.40;;;;;;5072201;28;20075;-91
2021/06/01 07:06:47;;;;;;;5.85;3.05;;;18.00;69.60;;;;;;5071149;28;20031;-93
2021/06/01 07:09:13;;;;;;;4.95;2.70;;;18.10;69.30;;;;;;5037681;28;20044;-89
2021/06/01 07:11:39;;;;;;;4.85;2.70;;;18.20;69.40;;;;;;5071386;28;20036;-90
2021/06/01 07:14:17;;;;;;;6.10;2.58;;;18.30;69.20;;;;;;5054238;28;20051;-90
2021/06/01 07:16:44;;;;;;;5.25;3.30;;;18.40;69.20;;;;;;5063851;28;20131;-85
2021/06/01 07:19:11;;;;;;;5.57;2.85;;;18.50;68.80;;;;;;5068672;28;20063;-85
2021/06/01 07:21:37;;;;;;;4.85;3.30;;;18.50;68.80;;;;;;5065433;28;20118;-86
2021/06/01 07:24:06;;;;;;;4.80;3.03;;;18.60;68.10;;;;;;5052590;28;20068;-85
2021/06/01 07:26:32;;;;;;;6.45;3.13;;;18.70;68.40;;;;;;5055820;28;20029;-86
2021/06/01 07:28:59;;;;;;;3.88;2.60;;;18.80;68.20;;;;;;5055641;28;20032;-86
2021/06/01 07:31:25;;;;;;;7.63;3.00;;;18.90;68.10;;;;;;5062318;28;20028;-86
2021/06/01 07:33:51;;;;;;;4.93;2.90;;;19.00;68.40;;;;;;5041317;28;20731;-86
2021/06/01 07:36:17;;;;;;;6.32;3.22;;;19.10;68.30;;;;;;5058025;28;20035;-86
2021/06/01 07:38:44;;;;;;;4.97;3.00;;;19.20;68.40;;;;;;5058287;28;20020;-85
2021/06/01 07:41:10;;;;;;;7.80;2.70;;;19.30;67.80;;;;;;5058578;28;20028;-86
2021/06/01 07:43:36;;;;;;;8.30;2.95;;;19.40;67.90;;;;;;5076054;28;20034;-85
2021/06/01 07:46:03;;;;;;;6.47;3.15;;;19.50;68.10;;;;;;5076002;28;20024;-89
2021/06/01 07:48:33;;;;;;;4.38;2.80;;;19.60;67.30;;;;;;5077004;28;20050;-83
2021/06/01 07:50:59;;;;;;;8.18;3.30;;;19.70;67.50;;;;;;5068578;28;20580;-84
2021/06/01 07:53:25;;;;;;;6.80;3.33;;;19.70;67.10;;;;;;5063152;28;20056;-86
2021/06/01 07:55:52;;;;;;;5.70;3.30;;;19.90;67.00;;;;;;5080684;28;20024;-86
2021/06/01 07:58:18;;;;;;;5.07;2.80;;;20.00;67.30;;;;;;5061723;28;20025;-86
2021/06/01 08:00:44;;;;;;;5.30;2.95;;;20.10;67.30;;;;;;5057128;28;20152;-84
2021/06/01 08:03:09;;;;;;;5.18;3.10;;;20.20;67.40;;;;;;5043204;28;20028;-85
2021/06/01 08:05:35;;;;;;;5.25;2.90;;;20.30;67.70;;;;;;5044775;28;20039;-87
2021/06/01 08:08:01;;;;;;;4.63;2.78;;;20.40;67.70;;;;;;5059810;28;20444;-87
2021/06/01 08:10:28;;;;;;;4.95;2.90;;;20.50;67.80;;;;;;5053678;28;20028;-85
2021/06/01 08:12:54;;;;;;;4.35;2.60;;;20.60;67.30;;;;;;5059888;28;20028;-83
2021/06/01 08:15:21;;;;;;;4.13;2.53;;;20.70;66.30;;;;;;5091111;28;20055;-92
2021/06/01 08:17:50;;;;;;;5.38;2.65;;;20.80;66.20;;;;;;5076184;28;20029;-91
2021/06/01 08:20:27;;;;;;;4.03;2.60;;;20.90;65.60;;;;;;5075725;28;20024;-84
2021/06/01 08:22:54;;;;;;;5.15;2.47;;;21.00;65.60;;;;;;5077800;28;20033;-85
2021/06/01 08:25:19;;;;;;;7.63;2.85;;;21.10;65.60;;;;;;5076884;28;20032;-81
2021/06/01 08:27:45;;;;;;;4.13;2.67;;;21.20;65.70;;;;;;5071831;28;20017;-83
2021/06/01 08:30:11;;;;;;;3.35;2.28;;;21.30;65.80;;;;;;5076762;28;20119;-84
2021/06/01 08:32:37;;;;;;;4.65;2.10;;;21.40;65.80;;;;;;5076716;28;20039;-82
2021/06/01 08:35:05;;;;;;;4.88;2.40;;;21.50;66.20;;;;;;5094338;28;20455;-82
2021/06/01 08:37:31;;;;;;;4.28;2.45;;;21.60;64.80;;;;;;5079166;28;20485;-85
2021/06/01 08:39:57;;;;;;;5.15;2.60;;;21.70;64.80;;;;;;5074323;28;20039;-83
2021/06/01 08:42:23;;;;;;;6.70;2.58;;;21.80;62.90;;;;;;5090366;28;20090;-82
2021/06/01 08:44:50;;;;;;;5.03;2.40;;;21.90;62.70;;;;;;5056718;28;20119;-85
2021/06/01 08:47:20;;;;;;;4.82;2.33;;;22.00;62.60;;;;;;5040618;28;20032;-84
2021/06/01 08:49:47;;;;;;;4.38;2.45;;;22.10;62.70;;;;;;5053720;28;20029;-83
2021/06/01 08:52:14;;;;;;;5.75;2.30;;;22.10;62.20;;;;;;5071910;28;20060;-84
2021/06/01 08:54:40;;;;;;;4.15;2.15;;;22.20;62.30;;;;;;5073709;28;20064;-87
2021/06/01 08:57:08;;;;;;;4.40;2.50;;;22.30;62.70;;;;;;5073516;28;20048;-85
2021/06/01 08:59:35;;;;;;;6.28;3.28;;;22.40;62.80;;;;;;5074162;28;20017;-82
2021/06/01 09:02:01;;;;;;;3.65;2.35;;;22.50;62.20;;;;;;5041096;28;20492;-84
2021/06/01 09:04:52;;;;;;;5.32;2.55;;;22.60;61.80;;;;;;5070604;28;20028;-84
2021/06/01 09:07:34;;;;;;;5.32;2.80;;;22.60;60.80;;;;;;5058826;28;20032;-85
2021/06/01 09:21:12;;;;;;;3.80;2.42;;;23.00;60.00;;;;;;5071151;28;20048;-83
2021/06/01 09:23:58;;;;;;;6.78;2.45;;;23.10;60.90;;;;;;5063353;28;20031;-83
2021/06/01 09:26:48;;;;;;;4.32;2.85;;;23.20;59.60;;;;;;5071016;28;20035;-83
2021/06/01 09:29:14;;;;;;;4.17;2.20;;;23.20;56.80;;;;;;5071710;28;20456;-83
2021/06/01 09:31:40;;;;;;;3.88;2.33;;;23.30;57.70;;;;;;5031924;28;20044;-82
2021/06/01 09:34:08;;;;;;;3.55;2.65;;;23.40;59.50;;;;;;5072347;28;20459;-83
2021/06/01 09:36:34;;;;;;;6.25;3.28;;;23.40;56.70;;;;;;5055047;28;20373;-83
2021/06/01 09:39:03;;;;;;;3.75;2.60;;;23.40;55.90;;;;;;5055429;28;20013;-82
2021/06/01 09:41:30;;;;;;;5.38;2.90;;;23.50;56.60;;;;;;5071913;28;20021;-82
2021/06/01 09:44:01;;;;;;;3.90;2.40;;;23.50;56.60;;;;;;5062132;28;20384;-83
2021/06/01 09:46:46;;;;;;;3.55;2.47;;;23.60;56.80;;;;;;5065898;28;20181;-84
2021/06/01 09:49:15;;;;;;;4.50;2.83;;;23.70;56.70;;;;;;5071576;28;20515;-83
2021/06/01 09:51:43;;;;;;;4.15;2.45;;;23.70;54.80;;;;;;5070975;28;20056;-83
2021/06/01 09:54:36;;;;;;;4.90;2.50;;;23.80;56.00;;;;;;5071316;28;20480;-83
2021/06/01 09:57:18;;;;;;;3.42;2.25;;;23.80;56.10;;;;;;5072499;28;20051;-82
2021/06/01 10:00:12;;;;;;;3.83;2.30;;;23.90;57.40;;;;;;5070034;28;20420;-83
2021/06/01 10:02:39;;;;;;;4.68;2.40;;;24.00;54.20;;;;;;5057355;28;20039;-81
2021/06/01 10:05:14;;;;;;;4.28;2.55;;;24.10;54.10;;;;;;5053475;28;20052;-85
2021/06/01 10:07:41;;;;;;;4.13;2.03;;;24.10;55.10;;;;;;5071039;28;20107;-81
2021/06/01 10:10:17;;;;;;;3.92;1.88;;;24.20;55.10;;;;;;5054228;28;20127;-82
2021/06/01 10:12:53;;;;;;;3.17;2.10;;;24.30;55.60;;;;;;5052297;28;20028;-81
2021/06/01 10:15:20;;;;;;;2.83;1.90;;;24.30;54.50;;;;;;5071072;28;20021;-82
2021/06/01 10:17:48;;;;;;;3.42;2.17;;;24.40;53.50;;;;;;5070324;28;20028;-80
2021/06/01 10:20:14;;;;;;;4.18;2.10;;;24.40;49.30;;;;;;5053806;28;20036;-81
2021/06/01 10:22:40;;;;;;;5.45;2.53;;;24.40;49.70;;;;;;5018302;28;20033;-88
2021/06/01 10:25:07;;;;;;;4.05;1.80;;;24.30;49.50;;;;;;5072161;28;20032;-92
2021/06/01 10:27:33;;;;;;;3.15;2.00;;;24.40;51.20;;;;;;5068791;28;20031;-88
2021/06/01 10:29:58;;;;;;;3.10;2.05;;;24.40;50.70;;;;;;5068151;28;20385;-88
2021/06/01 10:32:25;;;;;;;3.28;1.70;;;24.50;50.50;;;;;;5072690;28;20040;-88
2021/06/01 10:34:52;;;;;;;3.67;2.25;;;24.50;49.90;;;;;;5070997;28;20032;-88
2021/06/01 10:44:03;;;;;;;2.10;1.85;;;24.70;50.80;;;;;;5073648;28;20457;-94
2021/06/01 10:49:59;;;;;;;1.63;1.50;;;24.80;49.00;;;;;;5043303;28;20097;-85
2021/06/01 10:52:06;;;;;;;3.92;2.20;;;24.90;45.60;;;;;;5069673;28;20111;-80
2021/06/01 10:54:48;;;;;;;4.40;2.10;;;24.80;47.20;;;;;;5062210;28;20091;-80
2021/06/01 10:57:16;;;;;;;4.57;2.08;;;24.90;47.90;;;;;;5070423;28;20020;-80
2021/06/01 11:02:20;;;;;;;4.43;1.77;;;25.00;47.00;;;;;;5070146;28;20035;-79
2021/06/01 11:05:07;;;;;;;1.80;1.52;;;25.00;47.80;;;;;;5070199;28;20480;-81
2021/06/01 11:08:03;;;;;;;5.70;1.70;;;25.10;48.80;;;;;;5068143;28;20099;-79
2021/06/01 11:10:43;;;;;;;2.33;1.60;;;25.20;48.60;;;;;;5070391;28;20012;-79
2021/06/01 11:13:31;;;;;;;1.92;1.65;;;25.30;48.80;;;;;;5070872;28;20024;-80
2021/06/01 11:15:59;;;;;;;3.85;1.83;;;25.40;47.30;;;;;;5070737;28;20087;-79
2021/06/01 11:18:52;;;;;;;5.03;2.00;;;25.40;48.60;;;;;;5069985;28;20040;-79
2021/06/01 11:35:24;;;;;;;3.25;2.00;;;25.70;47.30;;;;;;5070587;28;20040;-79
2021/06/01 11:38:01;;;;;;;3.13;1.80;;;25.70;46.10;;;;;;5065037;28;20017;-81
2021/06/01 11:43:14;;;;;;;3.92;1.80;;;25.80;45.50;;;;;;5055305;28;20065;-80
2021/06/01 11:45:44;;;;;;;2.40;1.80;;;25.80;44.00;;;;;;5061012;28;20036;-82
2021/06/01 11:51:13;;;;;;;3.97;2.08;;;25.80;42.70;;;;;;5070257;28;20484;-84
2021/06/01 11:53:56;;;;;;;2.95;1.70;;;25.80;43.00;;;;;;5071431;28;20036;-93
2021/06/01 11:57:23;;;;;;;5.47;2.10;;;25.80;44.00;;;;;;5071628;28;20051;-90
2021/06/01 12:05:03;;;;;;;2.30;1.70;;;26.00;45.30;;;;;;5071850;28;20374;-89
2021/06/01 12:18:45;;;;;;;3.80;1.90;;;26.20;43.30;;;;;;5073520;28;20059;-81
2021/06/01 12:21:20;;;;;;;2.53;1.70;;;26.30;44.30;;;;;;5074064;28;20171;-80
2021/06/01 12:24:24;;;;;;;4.07;1.85;;;26.30;45.60;;;;;;5072595;28;20107;-81
2021/06/01 12:32:35;;;;;;;2.72;1.77;;;26.50;45.00;;;;;;5056551;28;20039;-88
2021/06/01 13:08:57;;;;;;;3.70;1.75;;;27.10;44.40;;;;;;5073227;28;20078;-88
2021/06/01 13:32:29;;;;;;;3.03;1.80;;;27.50;42.00;;;;;;5055553;28;20032;-88
2021/06/01 13:38:20;;;;;;;2.83;1.80;;;27.60;43.20;;;;;;4999495;28;20042;-88
2021/06/01 13:46:39;;;;;;;2.33;1.73;;;27.90;42.50;;;;;;5073258;28;20063;-88
2021/06/01 13:49:12;;;;;;;3.47;1.52;;;27.90;43.60;;;;;;5055298;28;20029;-90
2021/06/01 13:57:07;;;;;;;4.07;1.83;;;28.00;42.40;;;;;;5073031;28;20158;-89
2021/06/01 14:19:22;;;;;;;2.45;1.58;;;28.20;43.30;;;;;;5057687;28;20055;-86
2021/06/01 14:29:53;;;;;;;2.55;1.77;;;28.30;42.40;;;;;;5053260;28;20078;-86
2021/06/01 14:54:45;;;;;;;6.05;2.10;;;28.40;42.60;;;;;;5071257;28;20029;-84
2021/06/01 15:32:30;;;;;;;4.40;1.70;;;28.50;42.20;;;;;;5056238;28;20042;-81
2021/06/01 15:54:06;;;;;;;2.92;2.13;;;28.50;43.50;;;;;;5067646;28;20115;-91
2021/06/01 16:13:38;;;;;;;3.63;2.10;;;28.30;40.40;;;;;;5073826;28;20087;-82
2021/06/01 16:32:29;;;;;;;3.25;1.95;;;28.30;42.70;;;;;;5073164;28;20110;-81
2021/06/01 17:05:16;;;;;;;6.88;1.90;;;28.20;38.20;;;;;;5058835;28;20035;-72
2021/06/01 17:13:08;;;;;;;2.20;1.58;;;28.10;38.30;;;;;;5072370;28;20087;-72
2021/06/01 17:15:36;;;;;;;3.95;1.80;;;28.10;40.40;;;;;;5067012;28;20107;-72
2021/06/01 17:18:12;;;;;;;2.38;1.73;;;28.10;40.70;;;;;;5057928;28;20079;-72
2021/06/01 17:37:19;;;;;;;4.10;2.10;;;27.50;40.20;;;;;;4990326;28;20054;-71
2021/06/01 17:39:45;;;;;;;3.35;1.67;;;27.40;39.30;;;;;;4991169;28;20495;-71
2021/06/01 17:42:17;;;;;;;1.92;1.50;;;27.30;40.40;;;;;;5025673;28;20076;-72
2021/06/01 17:44:46;;;;;;;2.78;1.88;;;27.20;39.80;;;;;;5068932;28;20032;-72
2021/06/01 17:47:16;;;;;;;3.03;1.70;;;27.20;39.40;;;;;;5067527;28;20028;-90
2021/06/01 17:49:49;;;;;;;2.20;1.50;;;27.10;40.20;;;;;;5068586;28;20488;-89
2021/06/01 17:52:22;;;;;;;2.92;1.70;;;27.00;40.30;;;;;;5072594;28;20108;-90
2021/06/01 17:54:50;;;;;;;4.25;1.63;;;26.90;41.10;;;;;;5072607;28;20020;-90
2021/06/01 17:57:16;;;;;;;3.22;1.70;;;26.90;42.40;;;;;;5075278;28;20052;-89
2021/06/01 17:59:43;;;;;;;2.88;1.60;;;26.90;42.70;;;;;;5054337;28;20021;-87
2021/06/01 18:02:12;;;;;;;4.60;1.95;;;26.80;40.10;;;;;;5051251;28;20488;-87
2021/06/01 18:04:38;;;;;;;4.43;1.60;;;26.70;41.00;;;;;;5070696;28;20102;-87
2021/06/01 18:07:11;;;;;;;2.67;1.80;;;26.70;41.50;;;;;;5054298;28;20462;-87
2021/06/01 18:34:49;;;;;;;5.20;2.10;;;26.40;45.60;;;;;;5060191;28;20393;-74
2021/06/01 18:37:32;;;;;;;3.85;1.75;;;26.20;43.80;;;;;;5068905;28;20043;-74
2021/06/01 19:49:53;;;;;;;4.05;1.80;;;25.10;50.30;;;;;;5060547;28;20102;-74
2021/06/01 19:50:00;;;;;;;4.20;2.30;;;25.00;49.60;;;;;;5060645;28;20043;-74
2021/06/01 19:52:28;;;;;;;5.70;2.20;;;24.90;49.50;;;;;;5070074;28;20052;-73
2021/06/01 19:54:56;;;;;;;3.17;2.17;;;24.90;49.50;;;;;;5061426;28;20021;-74
2021/06/01 19:57:23;;;;;;;3.47;2.10;;;24.80;50.40;;;;;;5070223;28;20028;-73
2021/06/01 19:59:51;;;;;;;4.97;2.13;;;24.80;50.50;;;;;;5069787;28;20515;-73
2021/06/01 20:02:24;;;;;;;4.18;2.33;;;24.70;50.10;;;;;;5062600;28;20115;-74
2021/06/01 20:05:00;;;;;;;4.68;2.10;;;24.70;49.20;;;;;;5070247;28;20435;-75
2021/06/01 20:07:28;;;;;;;4.70;2.20;;;24.60;50.50;;;;;;5069212;28;20019;-74
2021/06/01 20:09:54;;;;;;;5.10;2.40;;;24.60;50.60;;;;;;5069748;28;20075;-74